sensor_id;sensor_type;location;lat;lon;timestamp;pressure;altitude;pressure_sealevel;temperature;humidity
74370;BME280;62805;44.644;10.942;2023-04-09T00:01:10;101505.97;;;10.60;73.01
74370;BME280;62805;44.644;10.942;2023-04-09T00:03:37;101506.59;;;10.67;72.83
74370;BME280;62805;44.644;10.942;2023-04-09T00:06:04;101507.97;;;10.64;72.65
74370;BME280;62805;44.644;10.942;2023-04-09T00:08:29;101504.13;;;10.49;72.94
74370;BME280;62805;44.644;10.942;2023-04-09T00:10:56;101505.03;;;10.76;72.20
74370;BME280;62805;44.644;10.942;2023-04-09T00:13:22;101496.59;;;10.54;72.47
74370;BME280;62805;44.644;10.942;2023-04-09T00:15:47;101502.03;;;10.61;72.79
74370;BME280;62805;44.644;10.942;2023-04-09T00:18:14;101511.03;;;10.63;72.88
74370;BME280;62805;44.644;10.942;2023-04-09T00:20:40;101512.50;;;10.44;73.79
74370;BME280;62805;44.644;10.942;2023-04-09T00:23:06;101505.16;;;10.43;73.96
74370;BME280;62805;44.644;10.942;2023-04-09T00:25:31;101504.50;;;10.36;74.51
74370;BME280;62805;44.644;10.942;2023-04-09T00:27:56;101496.66;;;10.38;74.15
74370;BME280;62805;44.644;10.942;2023-04-09T00:30:23;101501.13;;;10.34;74.55
74370;BME280;62805;44.644;10.942;2023-04-09T00:32:48;101494.53;;;10.06;75.21
74370;BME280;62805;44.644;10.942;2023-04-09T00:35:14;101508.16;;;10.36;75.29
74370;BME280;62805;44.644;10.942;2023-04-09T00:37:41;101514.25;;;10.28;75.51
74370;BME280;62805;44.644;10.942;2023-04-09T00:40:07;101513.38;;;10.28;75.43
74370;BME280;62805;44.644;10.942;2023-04-09T00:42:33;101514.94;;;10.19;75.79
74370;BME280;62805;44.644;10.942;2023-04-09T00:44:59;101515.47;;;10.16;75.77
74370;BME280;62805;44.644;10.942;2023-04-09T00:47:25;101515.47;;;10.16;75.99
74370;BME280;62805;44.644;10.942;2023-04-09T00:49:53;101497.19;;;9.96;76.32
74370;BME280;62805;44.644;10.942;2023-04-09T00:52:18;101512.59;;;10.10;76.46
74370;BME280;62805;44.644;10.942;2023-04-09T00:54:44;101514.94;;;10.19;76.38
74370;BME280;62805;44.644;10.942;2023-04-09T00:57:09;101516.00;;;10.13;76.74
74370;BME280;62805;44.644;10.942;2023-04-09T00:59:37;101518.81;;;10.13;76.83
74370;BME280;62805;44.644;10.942;2023-04-09T01:02:02;101521.41;;;10.19;76.70
74370;BME280;62805;44.644;10.942;2023-04-09T01:04:28;101522.09;;;10.09;77.03
74370;BME280;62805;44.644;10.942;2023-04-09T01:06:58;101522.09;;;10.09;77.02
74370;BME280;62805;44.644;10.942;2023-04-09T01:09:40;101524.16;;;9.97;77.12
74370;BME280;62805;44.644;10.942;2023-04-09T01:12:31;101530.63;;;9.98;77.58
74370;BME280;62805;44.644;10.942;2023-04-09T01:15:13;101525.53;;;9.95;77.33
74370;BME280;62805;44.644;10.942;2023-04-09T01:18:09;101539.31;;;9.96;77.24
74370;BME280;62805;44.644;10.942;2023-04-09T01:20:41;101533.03;;;9.89;77.78
74370;BME280;62805;44.644;10.942;2023-04-09T01:28:34;101528.41;;;9.83;77.78
74370;BME280;62805;44.644;10.942;2023-04-09T01:31:12;101545.44;;;9.93;77.62
74370;BME280;62805;44.644;10.942;2023-04-09T01:33:38;101534.03;;;9.83;78.36
74370;BME280;62805;44.644;10.942;2023-04-09T01:36:05;101527.75;;;9.93;78.06
74370;BME280;62805;44.644;10.942;2023-04-09T01:38:33;101536.44;;;9.91;78.23
74370;BME280;62805;44.644;10.942;2023-04-09T01:41:00;101534.22;;;9.93;78.27
74370;BME280;62805;44.644;10.942;2023-04-09T01:43:27;101529.63;;;9.87;78.46
74370;BME280;62805;44.644;10.942;2023-04-09T01:45:54;101528.78;;;9.70;78.84
74370;BME280;62805;44.644;10.942;2023-04-09T01:48:21;101535.75;;;9.84;78.81
74370;BME280;62805;44.644;10.942;2023-04-09T01:50:48;101530.81;;;9.91;78.43
74370;BME280;62805;44.644;10.942;2023-04-09T01:53:13;101525.53;;;9.95;77.94
74370;BME280;62805;44.644;10.942;2023-04-09T01:55:39;101502.47;;;9.76;77.82
74370;BME280;62805;44.644;10.942;2023-04-09T01:58:04;101523.66;;;9.84;77.79
74370;BME280;62805;44.644;10.942;2023-04-09T02:00:35;101520.06;;;9.88;77.74
74370;BME280;62805;44.644;10.942;2023-04-09T02:06:16;101517.25;;;9.88;77.54
74370;BME280;62805;44.644;10.942;2023-04-09T02:08:46;101508.34;;;9.75;77.72
74370;BME280;62805;44.644;10.942;2023-04-09T02:11:14;101523.16;;;9.87;77.66
74370;BME280;62805;44.644;10.942;2023-04-09T02:13:41;101524.53;;;9.84;78.05
74370;BME280;62805;44.644;10.942;2023-04-09T02:16:10;101523.84;;;9.77;78.11
74370;BME280;62805;44.644;10.942;2023-04-09T02:18:35;101523.31;;;9.80;78.25
74370;BME280;62805;44.644;10.942;2023-04-09T02:21:03;101526.22;;;9.85;78.05
74370;BME280;62805;44.644;10.942;2023-04-09T02:23:30;101537.38;;;9.80;78.00
74370;BME280;62805;44.644;10.942;2023-04-09T02:25:57;101529.81;;;9.64;78.27
74370;BME280;62805;44.644;10.942;2023-04-09T02:28:23;101532.13;;;9.67;77.18
74370;BME280;62805;44.644;10.942;2023-04-09T02:30:49;101542.81;;;9.70;77.08
74370;BME280;62805;44.644;10.942;2023-04-09T02:33:14;101543.69;;;9.71;76.90
74370;BME280;62805;44.644;10.942;2023-04-09T02:35:39;101545.72;;;9.75;76.83
74370;BME280;62805;44.644;10.942;2023-04-09T02:38:05;101545.81;;;9.64;77.12
74370;BME280;62805;44.644;10.942;2023-04-09T02:40:32;101541.09;;;9.69;76.90
74370;BME280;62805;44.644;10.942;2023-04-09T02:42:57;101534.25;;;9.60;77.02
74370;BME280;62805;44.644;10.942;2023-04-09T02:45:23;101534.72;;;9.57;77.20
74370;BME280;62805;44.644;10.942;2023-04-09T02:47:48;101532.69;;;9.53;77.28
74370;BME280;62805;44.644;10.942;2023-04-09T02:50:13;101533.56;;;9.53;77.36
74370;BME280;62805;44.644;10.942;2023-04-09T02:52:39;101534.25;;;9.60;76.95
74370;BME280;62805;44.644;10.942;2023-04-09T02:55:05;101531.44;;;9.60;77.09
74370;BME280;62805;44.644;10.942;2023-04-09T02:57:30;101536.09;;;9.71;76.27
74370;BME280;62805;44.644;10.942;2023-04-09T02:59:57;101535.06;;;9.61;76.10
74370;BME280;62805;44.644;10.942;2023-04-09T03:02:22;101542.31;;;9.73;76.08
74370;BME280;62805;44.644;10.942;2023-04-09T03:04:48;101533.63;;;9.75;75.56
74370;BME280;62805;44.644;10.942;2023-04-09T03:07:13;101535.09;;;9.77;75.33
74370;BME280;62805;44.644;10.942;2023-04-09T03:09:38;101528.88;;;9.75;75.12
74370;BME280;62805;44.644;10.942;2023-04-09T03:12:04;101531.84;;;9.69;75.35
74370;BME280;62805;44.644;10.942;2023-04-09T03:14:29;101537.22;;;9.70;75.24
74370;BME280;62805;44.644;10.942;2023-04-09T03:16:55;101531.00;;;9.68;74.94
74370;BME280;62805;44.644;10.942;2023-04-09T03:19:20;101533.72;;;9.63;74.77
74370;BME280;62805;44.644;10.942;2023-04-09T03:21:46;101535.59;;;9.58;74.71
74370;BME280;62805;44.644;10.942;2023-04-09T03:24:13;101528.63;;;9.60;74.81
74370;BME280;62805;44.644;10.942;2023-04-09T03:26:38;101530.75;;;9.53;74.72
74370;BME280;62805;44.644;10.942;2023-04-09T03:29:05;101542.56;;;9.72;74.61
74370;BME280;62805;44.644;10.942;2023-04-09T03:31:31;101541.88;;;9.81;74.14
74370;BME280;62805;44.644;10.942;2023-04-09T03:33:56;101546.84;;;9.74;74.17
74370;BME280;62805;44.644;10.942;2023-04-09T03:36:22;101526.31;;;9.57;74.51
74370;BME280;62805;44.644;10.942;2023-04-09T03:38:47;101546.63;;;9.64;74.83
74370;BME280;62805;44.644;10.942;2023-04-09T03:41:13;101541.22;;;9.74;74.36
74370;BME280;62805;44.644;10.942;2023-04-09T03:43:38;101544.78;;;9.86;73.89
74370;BME280;62805;44.644;10.942;2023-04-09T03:46:14;101541.88;;;9.81;73.77
74370;BME280;62805;44.644;10.942;2023-04-09T03:48:39;101539.66;;;9.83;74.04
74370;BME280;62805;44.644;10.942;2023-04-09T03:51:05;101546.91;;;9.79;74.11
74370;BME280;62805;44.644;10.942;2023-04-09T03:53:31;101547.59;;;9.86;74.30
74370;BME280;62805;44.644;10.942;2023-04-09T03:55:58;101542.38;;;9.78;74.36
74370;BME280;62805;44.644;10.942;2023-04-09T03:58:23;101554.72;;;9.77;74.40
74370;BME280;62805;44.644;10.942;2023-04-09T04:00:48;101549.13;;;9.77;74.17
74370;BME280;62805;44.644;10.942;2023-04-09T04:03:14;101553.28;;;9.58;74.95
74370;BME280;62805;44.644;10.942;2023-04-09T04:05:43;101550.41;;;9.53;75.56
74370;BME280;62805;44.644;10.942;2023-04-09T04:08:08;101550.56;;;9.63;75.01
74370;BME280;62805;44.644;10.942;2023-04-09T04:10:34;101548.84;;;9.62;75.16
74370;BME280;62805;44.644;10.942;2023-04-09T04:12:59;101554.47;;;9.62;75.13
74370;BME280;62805;44.644;10.942;2023-04-09T04:15:26;101559.56;;;9.49;75.54
74370;BME280;62805;44.644;10.942;2023-04-09T04:17:52;101553.44;;;9.35;75.61
74370;BME280;62805;44.644;10.942;2023-04-09T04:20:17;101553.75;;;9.22;75.86
74370;BME280;62805;44.644;10.942;2023-04-09T04:22:42;101561.66;;;9.25;76.07
74370;BME280;62805;44.644;10.942;2023-04-09T04:25:08;101571.69;;;9.21;76.50
74370;BME280;62805;44.644;10.942;2023-04-09T04:27:33;101571.25;;;9.29;76.23
74370;BME280;62805;44.644;10.942;2023-04-09T04:29:59;101559.84;;;9.19;76.17
74370;BME280;62805;44.644;10.942;2023-04-09T04:32:26;101572.75;;;9.03;77.57
74370;BME280;62805;44.644;10.942;2023-04-09T04:34:51;101569.50;;;8.95;77.03
74370;BME280;62805;44.644;10.942;2023-04-09T04:37:16;101573.16;;;8.95;76.65
74370;BME280;62805;44.644;10.942;2023-04-09T04:39:42;101579.41;;;9.14;76.90
74370;BME280;62805;44.644;10.942;2023-04-09T04:42:07;101580.72;;;8.95;76.97
74370;BME280;62805;44.644;10.942;2023-04-09T04:44:32;101582.69;;;8.83;77.43
74370;BME280;62805;44.644;10.942;2023-04-09T04:46:58;101589.28;;;8.77;77.74
74370;BME280;62805;44.644;10.942;2023-04-09T04:49:23;101583.19;;;8.80;77.67
74370;BME280;62805;44.644;10.942;2023-04-09T04:51:48;101582.16;;;8.69;78.55
74370;BME280;62805;44.644;10.942;2023-04-09T04:54:14;101582.38;;;8.68;78.90
74370;BME280;62805;44.644;10.942;2023-04-09T04:56:39;101580.94;;;8.65;79.15
74370;BME280;62805;44.644;10.942;2023-04-09T04:59:05;101583.19;;;8.29;80.65
74370;BME280;62805;44.644;10.942;2023-04-09T05:01:30;101586.34;;;8.32;80.66
74370;BME280;62805;44.644;10.942;2023-04-09T05:03:55;101593.50;;;8.40;80.58
74370;BME280;62805;44.644;10.942;2023-04-09T05:06:21;101574.50;;;8.42;80.96
74370;BME280;62805;44.644;10.942;2023-04-09T05:08:46;101587.53;;;8.48;80.52
74370;BME280;62805;44.644;10.942;2023-04-09T05:11:12;101581.28;;;8.57;80.48
74370;BME280;62805;44.644;10.942;2023-04-09T05:13:39;101577.50;;;8.63;79.67
74370;BME280;62805;44.644;10.942;2023-04-09T05:16:04;101584.44;;;8.61;79.46
74370;BME280;62805;44.644;10.942;2023-04-09T05:18:30;101588.72;;;8.63;79.21
74370;BME280;62805;44.644;10.942;2023-04-09T05:20:56;101592.00;;;8.72;78.98
74370;BME280;62805;44.644;10.942;2023-04-09T05:23:21;101593.72;;;8.73;78.74
74370;BME280;62805;44.644;10.942;2023-04-09T05:25:50;101592.19;;;8.82;78.48
74370;BME280;62805;44.644;10.942;2023-04-09T05:28:15;101572.97;;;8.74;78.62
74370;BME280;62805;44.644;10.942;2023-04-09T05:30:45;101577.56;;;8.80;78.59
74370;BME280;62805;44.644;10.942;2023-04-09T05:33:10;101585.81;;;8.98;78.16
74370;BME280;62805;44.644;10.942;2023-04-09T05:35:38;101592.97;;;9.06;78.04
74370;BME280;62805;44.644;10.942;2023-04-09T05:38:04;101595.25;;;9.20;78.00
74370;BME280;62805;44.644;10.942;2023-04-09T05:40:30;101603.31;;;9.33;77.27
74370;BME280;62805;44.644;10.942;2023-04-09T05:42:55;101604.13;;;9.45;76.40
74370;BME280;62805;44.644;10.942;2023-04-09T05:45:20;101609.81;;;9.50;76.26
74370;BME280;62805;44.644;10.942;2023-04-09T05:47:46;101613.47;;;9.51;76.16
74370;BME280;62805;44.644;10.942;2023-04-09T05:50:12;101623.25;;;9.48;76.42
74370;BME280;62805;44.644;10.942;2023-04-09T05:52:37;101618.84;;;9.52;76.33
74370;BME280;62805;44.644;10.942;2023-04-09T05:55:03;101628.13;;;9.69;75.63
74370;BME280;62805;44.644;10.942;2023-04-09T05:57:29;101625.91;;;9.71;75.41
74370;BME280;62805;44.644;10.942;2023-04-09T05:59:56;101624.75;;;9.67;75.71
74370;BME280;62805;44.644;10.942;2023-04-09T06:02:21;101627.91;;;9.71;75.28
74370;BME280;62805;44.644;10.942;2023-04-09T06:04:46;101631.69;;;9.81;75.42
74370;BME280;62805;44.644;10.942;2023-04-09T06:07:12;101635.13;;;9.83;75.48
74370;BME280;62805;44.644;10.942;2023-04-09T06:09:37;101634.94;;;9.73;75.52
74370;BME280;62805;44.644;10.942;2023-04-09T06:12:03;101643.97;;;9.75;75.24
74370;BME280;62805;44.644;10.942;2023-04-09T06:14:28;101643.44;;;9.78;75.66
74370;BME280;62805;44.644;10.942;2023-04-09T06:16:57;101644.97;;;9.69;76.33
74370;BME280;62805;44.644;10.942;2023-04-09T06:19:23;101650.00;;;9.67;76.46
74370;BME280;62805;44.644;10.942;2023-04-09T06:21:48;101654.16;;;9.65;76.58
74370;BME280;62805;44.644;10.942;2023-04-09T06:24:13;101655.91;;;9.54;76.95
74370;BME280;62805;44.644;10.942;2023-04-09T06:26:39;101649.06;;;9.62;76.23
74370;BME280;62805;44.644;10.942;2023-04-09T06:29:05;101657.72;;;9.60;75.74
74370;BME280;62805;44.644;10.942;2023-04-09T06:31:31;101667.94;;;9.66;75.17
74370;BME280;62805;44.644;10.942;2023-04-09T06:33:56;101658.88;;;9.76;74.72
74370;BME280;62805;44.644;10.942;2023-04-09T06:36:21;101659.13;;;9.74;74.66
74370;BME280;62805;44.644;10.942;2023-04-09T06:38:47;101647.28;;;9.72;74.10
74370;BME280;62805;44.644;10.942;2023-04-09T06:41:12;101668.31;;;9.86;74.95
74370;BME280;62805;44.644;10.942;2023-04-09T06:43:39;101665.84;;;10.06;75.00
74370;BME280;62805;44.644;10.942;2023-04-09T06:46:05;101671.59;;;10.11;74.80
74370;BME280;62805;44.644;10.942;2023-04-09T06:48:30;101664.44;;;10.21;75.20
74370;BME280;62805;44.644;10.942;2023-04-09T06:50:55;101653.94;;;9.99;74.97
74370;BME280;62805;44.644;10.942;2023-04-09T06:53:21;101666.28;;;9.98;75.13
74370;BME280;62805;44.644;10.942;2023-04-09T06:55:46;101669.03;;;10.10;74.53
74370;BME280;62805;44.644;10.942;2023-04-09T06:58:11;101676.75;;;10.03;73.86
74370;BME280;62805;44.644;10.942;2023-04-09T07:00:37;101686.22;;;10.13;74.08
74370;BME280;62805;44.644;10.942;2023-04-09T07:03:03;101691.16;;;10.40;73.21
74370;BME280;62805;44.644;10.942;2023-04-09T07:05:29;101692.34;;;10.44;72.43
74370;BME280;62805;44.644;10.942;2023-04-09T07:07:55;101687.03;;;10.64;71.50
74370;BME280;62805;44.644;10.942;2023-04-09T07:10:21;101678.03;;;10.62;71.60
74370;BME280;62805;44.644;10.942;2023-04-09T07:12:46;101691.91;;;10.90;70.86
74370;BME280;62805;44.644;10.942;2023-04-09T07:15:12;101691.06;;;11.11;70.22
74370;BME280;62805;44.644;10.942;2023-04-09T07:17:37;101690.03;;;11.17;70.36
74370;BME280;62805;44.644;10.942;2023-04-09T07:20:03;101691.06;;;11.11;70.97
74370;BME280;62805;44.644;10.942;2023-04-09T07:22:29;101694.03;;;11.21;70.54
74370;BME280;62805;44.644;10.942;2023-04-09T07:24:55;101699.59;;;11.38;70.60
74370;BME280;62805;44.644;10.942;2023-04-09T07:27:22;101699.91;;;11.41;69.50
74370;BME280;62805;44.644;10.942;2023-04-09T07:29:47;101695.34;;;11.35;69.46
74370;BME280;62805;44.644;10.942;2023-04-09T07:32:13;101698.72;;;11.37;69.48
74370;BME280;62805;44.644;10.942;2023-04-09T07:34:40;101702.00;;;11.29;69.77
74370;BME280;62805;44.644;10.942;2023-04-09T07:37:06;101700.50;;;11.43;70.14
74370;BME280;62805;44.644;10.942;2023-04-09T07:39:32;101699.53;;;11.54;69.62
74370;BME280;62805;44.644;10.942;2023-04-09T07:41:57;101706.94;;;11.39;69.98
74370;BME280;62805;44.644;10.942;2023-04-09T07:44:26;101713.91;;;11.79;70.05
74370;BME280;62805;44.644;10.942;2023-04-09T07:46:52;101713.66;;;12.12;69.20
74370;BME280;62805;44.644;10.942;2023-04-09T07:49:17;101718.47;;;12.44;68.12
74370;BME280;62805;44.644;10.942;2023-04-09T07:51:43;101714.00;;;12.53;67.19
74370;BME280;62805;44.644;10.942;2023-04-09T07:54:08;101715.66;;;12.44;67.27
74370;BME280;62805;44.644;10.942;2023-04-09T07:56:33;101711.03;;;12.32;67.98
74370;BME280;62805;44.644;10.942;2023-04-09T07:58:59;101700.97;;;12.42;67.71
74370;BME280;62805;44.644;10.942;2023-04-09T08:01:24;101709.84;;;12.23;68.35
74370;BME280;62805;44.644;10.942;2023-04-09T08:03:50;101708.03;;;12.12;68.81
74370;BME280;62805;44.644;10.942;2023-04-09T08:06:15;101711.88;;;12.01;69.77
74370;BME280;62805;44.644;10.942;2023-04-09T08:08:41;101714.91;;;11.95;69.64
74370;BME280;62805;44.644;10.942;2023-04-09T08:11:07;101700.25;;;11.93;69.99
74370;BME280;62805;44.644;10.942;2023-04-09T08:13:32;101704.44;;;11.90;69.63
74370;BME280;62805;44.644;10.942;2023-04-09T08:16:01;101705.63;;;11.94;70.11
74370;BME280;62805;44.644;10.942;2023-04-09T08:18:27;101705.22;;;12.12;69.77
74370;BME280;62805;44.644;10.942;2023-04-09T08:20:53;101705.53;;;12.16;70.12
74370;BME280;62805;44.644;10.942;2023-04-09T08:23:18;101701.84;;;12.10;70.53
74370;BME280;62805;44.644;10.942;2023-04-09T08:25:44;101707.59;;;12.25;69.91
74370;BME280;62805;44.644;10.942;2023-04-09T08:28:09;101718.34;;;12.28;70.13
74370;BME280;62805;44.644;10.942;2023-04-09T08:30:35;101709.22;;;12.16;69.93
74370;BME280;62805;44.644;10.942;2023-04-09T08:33:01;101722.91;;;12.34;70.20
74370;BME280;62805;44.644;10.942;2023-04-09T08:35:26;101714.56;;;12.50;70.01
74370;BME280;62805;44.644;10.942;2023-04-09T08:37:54;101720.28;;;12.60;69.56
74370;BME280;62805;44.644;10.942;2023-04-09T08:40:20;101728.88;;;12.75;69.64
74370;BME280;62805;44.644;10.942;2023-04-09T08:42:52;101734.03;;;12.88;68.76
74370;BME280;62805;44.644;10.942;2023-04-09T08:45:18;101737.00;;;13.03;68.08
74370;BME280;62805;44.644;10.942;2023-04-09T08:47:44;101728.59;;;13.18;67.43
74370;BME280;62805;44.644;10.942;2023-04-09T08:50:12;101732.03;;;13.30;67.23
74370;BME280;62805;44.644;10.942;2023-04-09T08:52:39;101718.03;;;13.55;66.33
74370;BME280;62805;44.644;10.942;2023-04-09T08:55:04;101729.38;;;13.65;66.27
74370;BME280;62805;44.644;10.942;2023-04-09T08:57:36;101727.63;;;13.54;66.38
74370;BME280;62805;44.644;10.942;2023-04-09T09:00:01;101729.63;;;13.49;66.23
74370;BME280;62805;44.644;10.942;2023-04-09T09:02:27;101731.56;;;13.43;66.60
74370;BME280;62805;44.644;10.942;2023-04-09T09:04:53;101729.34;;;13.50;66.43
74370;BME280;62805;44.644;10.942;2023-04-09T09:07:23;101732.44;;;13.54;66.45
74370;BME280;62805;44.644;10.942;2023-04-09T09:09:59;101731.00;;;13.46;66.92
74370;BME280;62805;44.644;10.942;2023-04-09T09:12:40;101733.50;;;13.37;67.30
74370;BME280;62805;44.644;10.942;2023-04-09T09:15:24;101731.56;;;13.43;67.42
74370;BME280;62805;44.644;10.942;2023-04-09T09:17:57;101721.94;;;13.44;66.29
74370;BME280;62805;44.644;10.942;2023-04-09T09:20:23;101719.69;;;13.46;66.17
74370;BME280;62805;44.644;10.942;2023-04-09T09:22:51;101725.66;;;13.50;65.77
74370;BME280;62805;44.644;10.942;2023-04-09T09:25:17;101725.38;;;13.51;65.90
74370;BME280;62805;44.644;10.942;2023-04-09T09:27:42;101737.28;;;13.63;66.13
74370;BME280;62805;44.644;10.942;2023-04-09T09:30:08;101727.13;;;13.72;66.08
74370;BME280;62805;44.644;10.942;2023-04-09T09:32:44;101729.75;;;13.89;65.25
74370;BME280;62805;44.644;10.942;2023-04-09T09:35:10;101727.19;;;13.87;64.78
74370;BME280;62805;44.644;10.942;2023-04-09T09:37:36;101726.06;;;13.93;63.58
74370;BME280;62805;44.644;10.942;2023-04-09T09:40:01;101734.00;;;14.01;64.14
74370;BME280;62805;44.644;10.942;2023-04-09T09:42:26;101728.94;;;14.18;63.89
74370;BME280;62805;44.644;10.942;2023-04-09T09:44:53;101734.38;;;14.50;62.08
74370;BME280;62805;44.644;10.942;2023-04-09T09:47:20;101729.56;;;14.45;60.43
74370;BME280;62805;44.644;10.942;2023-04-09T09:49:49;101733.53;;;14.49;60.83
74370;BME280;62805;44.644;10.942;2023-04-09T09:52:17;101728.69;;;14.75;58.23
74370;BME280;62805;44.644;10.942;2023-04-09T09:54:47;101732.59;;;15.14;56.53
74370;BME280;62805;44.644;10.942;2023-04-09T09:57:18;101729.97;;;15.38;55.32
74370;BME280;62805;44.644;10.942;2023-04-09T09:59:52;101728.22;;;15.57;55.57
74370;BME280;62805;44.644;10.942;2023-04-09T10:02:19;101725.88;;;15.74;54.26
74370;BME280;62805;44.644;10.942;2023-04-09T10:04:48;101730.59;;;15.94;52.31
74370;BME280;62805;44.644;10.942;2023-04-09T10:07:16;101721.84;;;15.90;53.42
74370;BME280;62805;44.644;10.942;2023-04-09T10:09:46;101725.47;;;15.96;54.77
74370;BME280;62805;44.644;10.942;2023-04-09T10:12:12;101727.13;;;16.02;55.60
74370;BME280;62805;44.644;10.942;2023-04-09T10:14:39;101725.75;;;15.94;54.01
74370;BME280;62805;44.644;10.942;2023-04-09T10:17:04;101717.88;;;15.86;55.84
74370;BME280;62805;44.644;10.942;2023-04-09T10:19:36;101714.22;;;15.81;56.63
74370;BME280;62805;44.644;10.942;2023-04-09T10:22:07;101713.06;;;15.87;56.93
74370;BME280;62805;44.644;10.942;2023-04-09T10:24:34;101710.41;;;16.00;54.57
74370;BME280;62805;44.644;10.942;2023-04-09T10:27:14;101711.00;;;15.92;54.26
74370;BME280;62805;44.644;10.942;2023-04-09T10:29:49;101710.63;;;15.65;54.21
74370;BME280;62805;44.644;10.942;2023-04-09T10:32:20;101702.94;;;14.72;56.58
74370;BME280;62805;44.644;10.942;2023-04-09T10:34:46;101703.44;;;15.09;56.49
74370;BME280;62805;44.644;10.942;2023-04-09T10:37:22;101688.63;;;15.42;55.20
74370;BME280;62805;44.644;10.942;2023-04-09T10:39:49;101701.56;;;15.63;55.06
74370;BME280;62805;44.644;10.942;2023-04-09T10:42:35;101699.75;;;15.18;54.57
74370;BME280;62805;44.644;10.942;2023-04-09T10:47:34;101700.00;;;15.22;54.76
74370;BME280;62805;44.644;10.942;2023-04-09T10:52:40;101693.13;;;15.38;53.93
74370;BME280;62805;44.644;10.942;2023-04-09T10:55:08;101684.13;;;15.26;53.64
74370;BME280;62805;44.644;10.942;2023-04-09T10:57:33;101691.47;;;15.32;54.06
74370;BME280;62805;44.644;10.942;2023-04-09T10:59:59;101693.09;;;15.58;53.69
74370;BME280;62805;44.644;10.942;2023-04-09T11:08:03;101690.97;;;16.22;51.14
74370;BME280;62805;44.644;10.942;2023-04-09T11:10:28;101686.97;;;16.28;51.40
74370;BME280;62805;44.644;10.942;2023-04-09T11:12:55;101682.84;;;16.49;50.10
74370;BME280;62805;44.644;10.942;2023-04-09T11:15:20;101689.16;;;16.70;49.50
74370;BME280;62805;44.644;10.942;2023-04-09T11:17:47;101678.06;;;16.73;47.92
74370;BME280;62805;44.644;10.942;2023-04-09T11:20:13;101685.41;;;16.74;48.63
74370;BME280;62805;44.644;10.942;2023-04-09T11:22:39;101673.38;;;16.88;49.21
74370;BME280;62805;44.644;10.942;2023-04-09T11:25:05;101678.22;;;17.11;48.74
74370;BME280;62805;44.644;10.942;2023-04-09T11:27:36;101681.59;;;17.13;48.28
74370;BME280;62805;44.644;10.942;2023-04-09T11:30:01;101683.44;;;17.04;47.84
74370;BME280;62805;44.644;10.942;2023-04-09T11:32:30;101686.34;;;16.94;46.80
74370;BME280;62805;44.644;10.942;2023-04-09T11:34:55;101678.06;;;16.73;47.92
74370;BME280;62805;44.644;10.942;2023-04-09T11:37:22;101681.94;;;16.83;48.04
74370;BME280;62805;44.644;10.942;2023-04-09T11:39:48;101681.97;;;17.06;46.77
74370;BME280;62805;44.644;10.942;2023-04-09T11:42:15;101686.44;;;17.12;45.92
74370;BME280;62805;44.644;10.942;2023-04-09T11:44:43;101668.13;;;16.71;46.79
74370;BME280;62805;44.644;10.942;2023-04-09T11:47:10;101682.03;;;17.01;46.98
74370;BME280;62805;44.644;10.942;2023-04-09T11:49:36;101675.09;;;17.12;46.51
74370;BME280;62805;44.644;10.942;2023-04-09T11:52:02;101666.97;;;17.01;47.46
74370;BME280;62805;44.644;10.942;2023-04-09T11:54:34;101677.50;;;17.24;46.32
74370;BME280;62805;44.644;10.942;2023-04-09T11:57:02;101678.84;;;16.45;46.92
74370;BME280;62805;44.644;10.942;2023-04-09T11:59:28;101671.50;;;16.49;47.93
74370;BME280;62805;44.644;10.942;2023-04-09T12:01:56;101669.00;;;16.71;47.06
74370;BME280;62805;44.644;10.942;2023-04-09T12:04:21;101667.56;;;16.98;47.14
74370;BME280;62805;44.644;10.942;2023-04-09T12:06:47;101667.13;;;17.14;45.64
74370;BME280;62805;44.644;10.942;2023-04-09T12:09:13;101667.59;;;17.21;44.83
74370;BME280;62805;44.644;10.942;2023-04-09T12:11:42;101669.03;;;17.19;44.45
74370;BME280;62805;44.644;10.942;2023-04-09T12:14:11;101659.47;;;17.10;44.46
74370;BME280;62805;44.644;10.942;2023-04-09T12:16:37;101651.28;;;17.32;44.38
74370;BME280;62805;44.644;10.942;2023-04-09T12:19:06;101655.59;;;17.48;42.91
74370;BME280;62805;44.644;10.942;2023-04-09T12:21:51;101652.81;;;17.43;43.30
74370;BME280;62805;44.644;10.942;2023-04-09T12:24:23;101643.69;;;16.75;43.47
74370;BME280;62805;44.644;10.942;2023-04-09T12:26:49;101647.38;;;16.76;43.25
74370;BME280;62805;44.644;10.942;2023-04-09T12:29:16;101644.84;;;16.98;43.72
74370;BME280;62805;44.644;10.942;2023-04-09T12:31:43;101633.13;;;16.81;43.44
74370;BME280;62805;44.644;10.942;2023-04-09T12:34:08;101632.81;;;17.06;42.99
74370;BME280;62805;44.644;10.942;2023-04-09T12:36:34;101622.69;;;17.00;43.07
74370;BME280;62805;44.644;10.942;2023-04-09T12:38:59;101630.56;;;17.50;42.99
74370;BME280;62805;44.644;10.942;2023-04-09T12:41:25;101618.75;;;17.80;41.99
74370;BME280;62805;44.644;10.942;2023-04-09T12:43:50;101625.47;;;17.89;41.86
74370;BME280;62805;44.644;10.942;2023-04-09T12:46:19;101633.50;;;17.63;41.43
74370;BME280;62805;44.644;10.942;2023-04-09T12:48:45;101620.28;;;17.54;41.82
74370;BME280;62805;44.644;10.942;2023-04-09T12:51:14;101621.28;;;17.21;42.14
74370;BME280;62805;44.644;10.942;2023-04-09T12:53:39;101619.47;;;17.06;42.57
74370;BME280;62805;44.644;10.942;2023-04-09T12:56:05;101620.66;;;16.77;42.37
74370;BME280;62805;44.644;10.942;2023-04-09T12:58:31;101618.88;;;16.86;41.61
74370;BME280;62805;44.644;10.942;2023-04-09T13:00:56;101618.88;;;16.86;40.98
74370;BME280;62805;44.644;10.942;2023-04-09T13:03:22;101608.88;;;17.35;42.80